Terminal Aerodrome Forecast
Issued by NWS Sterling, VA

Current Version | Previous Version | Graphics & Text | Print | Product List | Glossary On
Versions: 1 2 3 4 5 6 7 8 9 10 11 12 13 14 15 16 17 18 19 20 21 22 23
000
FTUS41 KLWX 191439 AAA
TAFMRB
TAF AMD
KMRB 191439Z 1915/2012 30023G42KT P6SM BKN040 BKN150
     FM191800 29020G34KT P6SM BKN050 BKN060
     FM192200 29016G24KT P6SM BKN050 BKN070
     FM200000 28011KT P6SM BKN050 BKN200
     FM200500 28010KT P6SM FEW050 SCT200=

USA.gov is the U.S. government's official web portal to all federal, state and local government web resources and services.